createdAt,value
2018-10-01T00:01:57.131Z,9.00
2018-10-01T00:04:25.213Z,9.00
2018-10-01T00:06:53.269Z,8.90
2018-10-01T00:09:21.293Z,8.90
2018-10-01T00:11:49.256Z,9.00
2018-10-01T00:14:17.297Z,8.90
2018-10-01T00:16:45.869Z,8.90
2018-10-01T00:19:19.368Z,9.00
2018-10-01T00:21:52.865Z,8.90
2018-10-01T00:24:20.929Z,8.90
2018-10-01T00:26:48.912Z,8.90
2018-10-01T00:29:17.080Z,8.90
2018-10-01T00:31:45.152Z,8.90
2018-10-01T00:34:13.173Z,8.90
2018-10-01T00:36:41.222Z,8.90
2018-10-01T00:39:10.053Z,8.90
2018-10-01T00:41:38.301Z,8.90
2018-10-01T00:44:06.719Z,8.90
2018-10-01T00:46:34.963Z,8.90
2018-10-01T00:49:03.047Z,8.90
2018-10-01T00:51:31.410Z,8.90
2018-10-01T00:53:59.486Z,8.90
2018-10-01T00:56:27.564Z,8.80
2018-10-01T00:58:55.492Z,8.80
2018-10-01T01:01:23.694Z,8.90
2018-10-01T01:03:51.815Z,8.90
2018-10-01T01:06:19.918Z,8.90
2018-10-01T01:08:47.964Z,8.90
2018-10-01T01:11:16.342Z,8.90
2018-10-01T01:13:44.446Z,8.80
2018-10-01T01:16:12.540Z,8.80
2018-10-01T01:18:40.590Z,8.80
2018-10-01T01:21:08.677Z,8.80
2018-10-01T01:23:36.721Z,8.80
2018-10-01T01:26:04.695Z,8.80
2018-10-01T01:28:32.673Z,8.80
2018-10-01T01:31:00.584Z,8.80
2018-10-01T01:33:28.606Z,8.80
2018-10-01T01:35:56.629Z,8.70
2018-10-01T01:38:24.687Z,8.70
2018-10-01T01:40:52.717Z,8.70
2018-10-01T01:43:20.859Z,8.80
2018-10-01T01:45:48.813Z,8.80
2018-10-01T01:48:16.799Z,8.70
2018-10-01T01:50:44.840Z,8.80
2018-10-01T01:53:12.801Z,8.70
2018-10-01T01:55:40.749Z,8.70
2018-10-01T01:58:09.040Z,8.70
2018-10-01T02:00:37.184Z,8.70
2018-10-01T02:03:05.313Z,8.70
2018-10-01T02:05:33.326Z,8.70
2018-10-01T02:08:01.300Z,8.70
2018-10-01T02:10:29.347Z,8.70
2018-10-01T02:12:57.342Z,8.70
2018-10-01T02:15:25.350Z,8.70
2018-10-01T02:17:53.372Z,8.60
2018-10-01T02:20:21.398Z,8.60
2018-10-01T02:22:49.439Z,8.60
2018-10-01T02:25:17.506Z,8.60
2018-10-01T02:27:45.541Z,8.60
2018-10-01T02:30:13.530Z,8.60
2018-10-01T02:32:41.529Z,8.60
2018-10-01T02:35:09.602Z,8.50
2018-10-01T02:37:37.898Z,8.50
2018-10-01T02:40:06.071Z,8.50
2018-10-01T02:42:33.970Z,8.50
2018-10-01T02:45:01.922Z,8.60
2018-10-01T02:47:29.916Z,8.50
2018-10-01T02:49:57.860Z,8.40
2018-10-01T02:54:35.394Z,8.40
2018-10-01T02:57:03.466Z,8.40
2018-10-01T02:59:31.462Z,8.40
2018-10-01T03:01:59.668Z,8.40
2018-10-01T03:04:28.003Z,8.40
2018-10-01T03:06:56.046Z,8.40
2018-10-01T03:09:24.125Z,8.30
2018-10-01T03:11:52.208Z,8.30
2018-10-01T03:14:20.191Z,8.30
2018-10-01T03:16:48.281Z,8.30
2018-10-01T03:19:16.334Z,8.30
2018-10-01T03:21:44.270Z,8.30
2018-10-01T03:24:12.272Z,8.30
2018-10-01T03:26:40.330Z,8.30
2018-10-01T03:29:08.323Z,8.30
2018-10-01T03:31:36.431Z,8.20
2018-10-01T03:34:04.478Z,8.20
2018-10-01T03:36:32.461Z,8.20
2018-10-01T03:39:00.504Z,8.20
2018-10-01T03:41:28.921Z,8.20
2018-10-01T03:43:56.919Z,8.20
2018-10-01T03:46:24.930Z,8.20
2018-10-01T03:48:52.948Z,8.20
2018-10-01T03:51:20.848Z,8.30
2018-10-01T03:53:48.836Z,8.30
2018-10-01T03:56:16.866Z,8.30
2018-10-01T03:58:45.045Z,8.20
2018-10-01T04:01:12.970Z,8.30
2018-10-01T04:03:40.908Z,8.20
2018-10-01T04:06:08.850Z,8.20
2018-10-01T04:08:36.964Z,8.10
2018-10-01T04:11:04.928Z,8.10
2018-10-01T04:13:32.926Z,8.20
2018-10-01T04:16:00.972Z,8.20
2018-10-01T04:18:28.965Z,8.20
2018-10-01T04:20:56.968Z,8.20
2018-10-01T04:23:25.000Z,8.20
2018-10-01T04:25:52.939Z,8.20
2018-10-01T04:28:20.973Z,8.10
2018-10-01T04:30:49.497Z,8.10
2018-10-01T04:33:17.676Z,8.10
2018-10-01T04:35:46.659Z,8.10
2018-10-01T04:38:14.651Z,8.20
2018-10-01T04:40:42.729Z,8.20
2018-10-01T04:43:11.718Z,8.20
2018-10-01T04:45:39.944Z,8.20
2018-10-01T04:48:07.880Z,8.20
2018-10-01T04:50:35.860Z,8.30
2018-10-01T04:53:03.766Z,8.30
2018-10-01T04:55:31.722Z,8.30
2018-10-01T04:57:59.696Z,8.40
2018-10-01T05:00:27.645Z,8.40
2018-10-01T05:02:55.606Z,8.40
2018-10-01T05:05:23.644Z,8.50
2018-10-01T05:07:51.746Z,8.40
2018-10-01T05:10:19.889Z,8.40
2018-10-01T05:12:47.852Z,8.40
2018-10-01T05:15:15.802Z,8.40
2018-10-01T05:17:44.114Z,8.50
2018-10-01T05:20:12.284Z,8.50
2018-10-01T05:22:40.305Z,8.50
2018-10-01T05:25:08.170Z,8.50
2018-10-01T05:27:36.133Z,8.50
2018-10-01T05:30:04.287Z,8.60
2018-10-01T05:32:32.300Z,8.50
2018-10-01T05:35:00.367Z,8.50
2018-10-01T05:37:28.403Z,8.50
2018-10-01T05:39:56.372Z,8.60
2018-10-01T05:42:24.638Z,8.60
2018-10-01T05:44:52.754Z,8.60
2018-10-01T05:47:21.331Z,8.60
2018-10-01T05:49:49.356Z,8.70
2018-10-01T05:52:17.482Z,8.70
2018-10-01T05:54:45.427Z,8.70
2018-10-01T05:57:13.604Z,8.80
2018-10-01T05:59:41.567Z,8.80
2018-10-01T06:02:09.924Z,8.80
2018-10-01T06:04:38.036Z,8.90
2018-10-01T06:07:06.576Z,8.90
2018-10-01T06:09:34.843Z,9.00
2018-10-01T06:12:02.798Z,9.00
2018-10-01T06:14:30.844Z,9.00
2018-10-01T06:16:58.937Z,9.10
2018-10-01T06:19:27.019Z,9.10
2018-10-01T06:21:54.963Z,9.10
2018-10-01T06:24:22.954Z,9.10
2018-10-01T06:26:50.859Z,9.10
2018-10-01T06:29:18.953Z,9.10
2018-10-01T06:31:46.984Z,9.20
2018-10-01T06:34:15.073Z,9.20
2018-10-01T06:36:43.163Z,9.20
2018-10-01T06:39:12.042Z,9.20
2018-10-01T06:41:40.158Z,9.20
2018-10-01T06:44:08.528Z,9.20
2018-10-01T06:46:36.555Z,9.20
2018-10-01T06:49:04.626Z,9.30
2018-10-01T06:51:32.628Z,9.30
2018-10-01T06:54:00.921Z,9.20
2018-10-01T06:56:29.141Z,9.20
2018-10-01T06:58:57.272Z,9.30
2018-10-01T07:01:25.148Z,9.20
2018-10-01T07:03:53.146Z,9.30
2018-10-01T07:06:21.275Z,9.30
2018-10-01T07:08:49.373Z,9.40
2018-10-01T07:11:17.499Z,9.40
2018-10-01T07:13:45.535Z,9.40
2018-10-01T07:16:13.669Z,9.50
2018-10-01T07:18:41.594Z,9.50
2018-10-01T07:21:09.485Z,9.60
2018-10-01T07:23:37.728Z,9.50
2018-10-01T07:26:05.719Z,9.50
2018-10-01T07:28:33.695Z,9.60
2018-10-01T07:31:01.815Z,9.60
2018-10-01T07:33:29.877Z,9.70
2018-10-01T07:35:58.083Z,9.70
2018-10-01T07:38:26.164Z,9.80
2018-10-01T07:40:54.297Z,9.80
2018-10-01T07:43:22.272Z,9.90
2018-10-01T07:45:50.576Z,9.90
2018-10-01T07:48:18.691Z,10.00
2018-10-01T07:50:46.775Z,10.00
2018-10-01T07:53:14.767Z,10.00
2018-10-01T07:55:42.809Z,10.00
2018-10-01T07:58:10.889Z,10.10
2018-10-01T08:00:39.027Z,10.20
2018-10-01T08:03:07.067Z,10.20
2018-10-01T08:05:35.347Z,10.20
2018-10-01T08:08:03.432Z,10.30
2018-10-01T08:10:31.547Z,10.30
2018-10-01T08:12:59.542Z,10.20
2018-10-01T08:15:27.654Z,10.30
2018-10-01T08:17:55.554Z,10.40
2018-10-01T08:20:23.658Z,10.40
2018-10-01T08:22:51.714Z,10.50
2018-10-01T08:25:19.785Z,10.70
2018-10-01T08:27:47.705Z,10.90
2018-10-01T08:30:15.688Z,10.90
2018-10-01T08:32:43.697Z,10.90
2018-10-01T08:35:11.833Z,10.80
2018-10-01T08:37:39.893Z,10.90
2018-10-01T08:40:08.049Z,11.00
2018-10-01T08:42:36.688Z,11.10
2018-10-01T08:45:04.680Z,11.20
2018-10-01T08:47:32.808Z,11.30
2018-10-01T08:50:05.039Z,11.40
2018-10-01T08:52:36.398Z,11.40
2018-10-01T08:55:04.479Z,11.40
2018-10-01T08:57:32.765Z,11.40
2018-10-01T09:00:00.891Z,11.40
2018-10-01T09:02:29.036Z,11.30
2018-10-01T09:04:57.102Z,11.30
2018-10-01T09:07:25.383Z,11.20
2018-10-01T09:09:53.491Z,11.30
2018-10-01T09:12:22.040Z,11.30
2018-10-01T09:14:50.123Z,11.40
2018-10-01T09:17:18.224Z,11.40
2018-10-01T09:19:46.170Z,11.50
2018-10-01T09:22:14.112Z,11.50
2018-10-01T09:24:42.092Z,11.50
2018-10-01T09:27:10.238Z,11.40
2018-10-01T09:29:38.606Z,11.40
2018-10-01T09:32:06.816Z,11.50
2018-10-01T09:34:34.894Z,11.60
2018-10-01T09:37:03.041Z,11.50
2018-10-01T09:39:31.195Z,11.50
2018-10-01T09:41:59.116Z,11.40
2018-10-01T09:44:27.164Z,11.40
2018-10-01T09:46:55.214Z,11.50
2018-10-01T09:49:23.303Z,11.70
2018-10-01T09:51:51.528Z,11.60
2018-10-01T09:54:20.313Z,11.60
2018-10-01T09:56:48.860Z,11.50
2018-10-01T09:59:16.841Z,11.60
2018-10-01T10:01:44.906Z,11.60
2018-10-01T10:04:13.119Z,11.60
2018-10-01T10:06:41.013Z,11.70
2018-10-01T10:09:10.246Z,11.80
2018-10-01T10:11:38.524Z,11.60
2018-10-01T10:14:06.585Z,11.50
2018-10-01T10:16:34.691Z,11.50
2018-10-01T10:19:02.898Z,11.60
2018-10-01T10:21:31.004Z,11.80
2018-10-01T10:23:59.023Z,11.90
2018-10-01T10:26:27.154Z,12.10
2018-10-01T10:28:55.238Z,12.30
2018-10-01T10:31:23.178Z,12.40
2018-10-01T10:33:51.256Z,12.50
2018-10-01T10:36:19.593Z,12.30
2018-10-01T10:38:47.536Z,12.30
2018-10-01T10:41:15.563Z,12.20
2018-10-01T10:43:43.469Z,12.10
2018-10-01T10:46:11.474Z,12.10
2018-10-01T10:48:39.510Z,12.10
2018-10-01T10:51:07.500Z,12.10
2018-10-01T10:53:35.550Z,12.10
2018-10-01T10:56:03.712Z,12.20
2018-10-01T10:58:31.652Z,12.30
2018-10-01T11:01:00.113Z,12.30
2018-10-01T11:03:28.262Z,12.30
2018-10-01T11:05:56.213Z,12.20
2018-10-01T11:08:24.255Z,12.20
2018-10-01T11:10:52.366Z,12.20
2018-10-01T11:13:27.600Z,12.30
2018-10-01T11:15:55.609Z,12.30
2018-10-01T11:18:23.653Z,12.30
2018-10-01T11:20:51.678Z,12.30
2018-10-01T11:23:19.592Z,12.50
2018-10-01T11:25:47.599Z,12.50
2018-10-01T11:28:15.569Z,12.50
2018-10-01T11:30:43.597Z,12.50
2018-10-01T11:33:11.762Z,12.50
2018-10-01T11:35:39.870Z,12.40
2018-10-01T11:38:08.055Z,12.40
2018-10-01T11:40:36.242Z,12.40
2018-10-01T11:43:04.424Z,12.40
2018-10-01T11:45:32.919Z,12.50
2018-10-01T11:48:01.081Z,12.60
2018-10-01T11:50:29.104Z,12.60
2018-10-01T11:52:57.037Z,12.70
2018-10-01T11:55:25.070Z,12.70
2018-10-01T11:57:53.449Z,12.70
2018-10-01T12:00:21.605Z,12.70
2018-10-01T12:02:49.900Z,12.80
2018-10-01T12:05:17.973Z,12.80
2018-10-01T12:07:46.034Z,12.80
2018-10-01T12:10:14.214Z,12.80
2018-10-01T12:12:42.281Z,13.00
2018-10-01T12:15:10.308Z,13.10
2018-10-01T12:17:38.188Z,13.10
2018-10-01T12:20:06.474Z,13.20
2018-10-01T12:22:34.427Z,13.20
2018-10-01T12:25:02.518Z,13.10
2018-10-01T12:27:30.895Z,13.20
2018-10-01T12:29:58.682Z,13.20
2018-10-01T12:32:26.615Z,13.30
2018-10-01T12:34:54.550Z,13.30
2018-10-01T12:37:22.526Z,13.20
2018-10-01T12:39:50.479Z,13.10
2018-10-01T12:42:18.484Z,13.10
2018-10-01T12:44:46.565Z,13.10
2018-10-01T12:47:14.670Z,13.10
2018-10-01T12:49:42.766Z,13.10
2018-10-01T12:52:10.794Z,13.20
2018-10-01T12:54:38.804Z,13.20
2018-10-01T12:57:07.200Z,13.30
2018-10-01T12:59:35.253Z,13.10
2018-10-01T13:02:03.102Z,13.10
2018-10-01T13:04:31.110Z,12.90
2018-10-01T13:06:59.118Z,13.00
2018-10-01T13:09:27.148Z,13.10
2018-10-01T13:11:55.143Z,13.10
2018-10-01T13:14:23.071Z,13.10
2018-10-01T13:16:51.068Z,13.10
2018-10-01T13:19:19.199Z,13.00
2018-10-01T13:21:47.390Z,13.00
2018-10-01T13:24:15.416Z,13.00
2018-10-01T13:26:43.285Z,12.90
2018-10-01T13:29:11.298Z,12.90
2018-10-01T13:31:39.458Z,13.00
2018-10-01T13:34:07.454Z,13.00
2018-10-01T13:36:35.575Z,13.10
2018-10-01T13:39:05.321Z,13.10
2018-10-01T13:41:33.313Z,13.10
2018-10-01T13:44:01.308Z,13.00
2018-10-01T13:46:29.338Z,13.10
2018-10-01T13:48:57.427Z,13.10
2018-10-01T13:51:25.381Z,13.10
2018-10-01T13:53:53.227Z,13.00
2018-10-01T13:56:21.370Z,12.90
2018-10-01T13:58:49.465Z,12.90
2018-10-01T14:01:17.443Z,12.70
2018-10-01T14:03:45.567Z,12.80
2018-10-01T14:06:13.921Z,12.80
2018-10-01T14:08:42.194Z,12.80
2018-10-01T14:11:10.217Z,12.70
2018-10-01T14:13:38.483Z,12.80
2018-10-01T14:16:06.495Z,12.80
2018-10-01T14:18:34.470Z,12.90
2018-10-01T14:21:02.652Z,12.90
2018-10-01T14:23:30.641Z,12.80
2018-10-01T14:25:58.612Z,12.80
2018-10-01T14:28:26.595Z,12.80
2018-10-01T14:30:54.720Z,12.80
2018-10-01T14:33:22.790Z,12.70
2018-10-01T14:35:50.795Z,12.60
2018-10-01T14:38:18.935Z,12.60
2018-10-01T14:40:46.867Z,12.50
2018-10-01T14:43:14.845Z,12.60
2018-10-01T14:45:42.958Z,12.60
2018-10-01T14:48:10.906Z,12.60
2018-10-01T14:50:39.039Z,12.50
2018-10-01T14:53:07.131Z,12.40
2018-10-01T14:55:35.110Z,12.50
2018-10-01T14:58:03.097Z,12.50
2018-10-01T15:00:31.314Z,12.50
2018-10-01T15:02:59.391Z,12.50
2018-10-01T15:05:27.418Z,12.40
2018-10-01T15:07:55.277Z,12.20
2018-10-01T15:10:23.356Z,12.10
2018-10-01T15:12:51.318Z,12.20
2018-10-01T15:15:19.280Z,12.20
2018-10-01T15:17:47.696Z,12.30
2018-10-01T15:20:15.795Z,12.20
2018-10-01T15:22:44.064Z,12.00
2018-10-01T15:25:12.234Z,12.00
2018-10-01T15:27:40.629Z,12.00
2018-10-01T15:30:08.802Z,11.90
2018-10-01T15:32:36.970Z,11.90
2018-10-01T15:35:05.518Z,11.90
2018-10-01T15:37:33.995Z,11.90
2018-10-01T15:40:02.370Z,11.80
2018-10-01T15:42:30.378Z,11.80
2018-10-01T15:44:58.478Z,11.80
2018-10-01T15:47:26.424Z,11.80
2018-10-01T15:49:54.381Z,11.80
2018-10-01T15:52:22.376Z,11.80
2018-10-01T15:54:50.344Z,11.70
2018-10-01T15:57:18.470Z,11.50
2018-10-01T15:59:46.531Z,11.40
2018-10-01T16:02:14.579Z,11.40
2018-10-01T16:04:42.736Z,11.40
2018-10-01T16:07:10.965Z,11.40
2018-10-01T16:09:40.590Z,11.40
2018-10-01T16:12:09.267Z,11.50
2018-10-01T16:14:37.538Z,11.50
2018-10-01T16:17:07.171Z,11.40
2018-10-01T16:19:35.311Z,11.40
2018-10-01T16:22:03.366Z,11.40
2018-10-01T16:24:31.632Z,11.40
2018-10-01T16:27:00.612Z,11.30
2018-10-01T16:29:29.921Z,11.30
2018-10-01T16:31:58.329Z,11.10
2018-10-01T16:34:27.429Z,10.90
2018-10-01T16:36:55.588Z,10.70
2018-10-01T16:39:23.482Z,10.60
2018-10-01T16:41:51.418Z,10.50
2018-10-01T16:44:19.389Z,10.40
2018-10-01T16:46:47.393Z,10.30
2018-10-01T16:49:15.413Z,10.30
2018-10-01T16:51:43.411Z,10.20
2018-10-01T16:54:11.605Z,10.20
2018-10-01T16:56:39.585Z,10.10
2018-10-01T16:59:07.535Z,10.00
2018-10-01T17:01:35.536Z,10.00
2018-10-01T17:04:03.865Z,9.90
2018-10-01T17:06:32.810Z,9.90
2018-10-01T17:09:01.454Z,9.90
2018-10-01T17:11:30.161Z,9.90
2018-10-01T17:13:58.292Z,9.90
2018-10-01T17:16:26.371Z,9.90
2018-10-01T17:18:54.497Z,9.80
2018-10-01T17:21:22.538Z,9.80
2018-10-01T17:23:50.785Z,9.70
2018-10-01T17:26:18.799Z,9.70
2018-10-01T17:28:46.803Z,9.70
2018-10-01T17:31:14.707Z,9.70
2018-10-01T17:33:42.865Z,9.60
2018-10-01T17:36:11.080Z,9.60
2018-10-01T17:38:39.011Z,9.60
2018-10-01T17:41:07.046Z,9.50
2018-10-01T17:43:35.050Z,9.50
2018-10-01T17:46:03.061Z,9.50
2018-10-01T17:48:31.766Z,9.50
2018-10-01T17:50:59.832Z,9.40
2018-10-01T17:53:27.829Z,9.40
2018-10-01T17:55:56.136Z,9.50
2018-10-01T17:58:24.043Z,9.60
2018-10-01T18:00:52.167Z,9.60
2018-10-01T18:03:20.202Z,9.60
2018-10-01T18:05:49.097Z,9.60
2018-10-01T18:08:17.235Z,9.50
2018-10-01T18:10:45.149Z,9.50
2018-10-01T18:13:13.130Z,9.40
2018-10-01T18:15:41.147Z,9.40
2018-10-01T18:18:09.311Z,9.30
2018-10-01T18:20:37.206Z,9.30
2018-10-01T18:23:05.254Z,9.20
2018-10-01T18:25:33.630Z,9.20
2018-10-01T18:28:01.636Z,9.10
2018-10-01T18:30:29.875Z,9.10
2018-10-01T18:32:57.768Z,9.10
2018-10-01T18:35:25.861Z,9.00
2018-10-01T18:37:53.753Z,9.00
2018-10-01T18:40:21.582Z,9.00
2018-10-01T18:42:49.680Z,8.90
2018-10-01T18:45:19.500Z,8.90
2018-10-01T18:47:47.949Z,8.90
2018-10-01T18:50:16.072Z,8.90
2018-10-01T18:52:43.978Z,8.90
2018-10-01T18:55:11.923Z,8.90
2018-10-01T18:57:40.331Z,8.90
2018-10-01T19:00:09.271Z,8.90
2018-10-01T19:02:37.343Z,8.80
2018-10-01T19:05:05.990Z,8.80
2018-10-01T19:07:33.979Z,8.80
2018-10-01T19:10:02.033Z,8.80
2018-10-01T19:12:30.141Z,8.70
2018-10-01T19:14:58.237Z,8.70
2018-10-01T19:17:26.413Z,8.70
2018-10-01T19:19:54.427Z,8.70
2018-10-01T19:22:22.409Z,8.60
2018-10-01T19:24:50.554Z,8.60
2018-10-01T19:27:18.683Z,8.60
2018-10-01T19:29:46.740Z,8.50
2018-10-01T19:32:14.697Z,8.50
2018-10-01T19:34:42.854Z,8.40
2018-10-01T19:37:10.930Z,8.50
2018-10-01T19:39:38.945Z,8.50
2018-10-01T19:42:07.296Z,8.50
2018-10-01T19:44:35.191Z,8.40
2018-10-01T19:47:03.234Z,8.40
2018-10-01T19:49:31.336Z,8.50
2018-10-01T19:51:59.331Z,8.50
2018-10-01T19:54:27.310Z,8.50
2018-10-01T19:56:55.853Z,8.50
2018-10-01T19:59:23.898Z,8.50
2018-10-01T20:01:51.884Z,8.50
2018-10-01T20:04:19.845Z,8.50
2018-10-01T20:06:47.751Z,8.60
2018-10-01T20:09:16.014Z,8.60
2018-10-01T20:11:44.308Z,8.60
2018-10-01T20:14:12.285Z,8.70
2018-10-01T20:16:40.462Z,8.70
2018-10-01T20:19:08.644Z,8.70
2018-10-01T20:21:36.752Z,8.70
2018-10-01T20:24:05.303Z,8.60
2018-10-01T20:26:33.904Z,8.50
2018-10-01T20:29:02.236Z,8.50
2018-10-01T20:31:29.991Z,8.50
2018-10-01T20:33:58.182Z,8.50
2018-10-01T20:36:27.028Z,8.50
2018-10-01T20:38:55.079Z,8.50
2018-10-01T20:41:23.217Z,8.60
2018-10-01T20:43:51.780Z,8.60
2018-10-01T20:46:19.789Z,8.60
2018-10-01T20:48:47.985Z,8.60
2018-10-01T20:51:16.009Z,8.60
2018-10-01T20:53:44.075Z,8.60
2018-10-01T20:56:12.183Z,8.60
2018-10-01T20:58:40.275Z,8.60
2018-10-01T21:01:08.427Z,8.70
2018-10-01T21:03:37.019Z,8.70
2018-10-01T21:06:05.005Z,8.70
2018-10-01T21:08:33.219Z,8.60
2018-10-01T21:11:01.160Z,8.60
2018-10-01T21:13:29.059Z,8.50
2018-10-01T21:15:57.068Z,8.50
2018-10-01T21:18:25.183Z,8.50
2018-10-01T21:20:53.407Z,8.50
2018-10-01T21:23:21.475Z,8.50
2018-10-01T21:25:49.448Z,8.40
2018-10-01T21:28:17.521Z,8.50
2018-10-01T21:30:45.563Z,8.50
2018-10-01T21:33:13.611Z,8.40
2018-10-01T21:35:41.672Z,8.40
2018-10-01T21:38:09.659Z,8.40
2018-10-01T21:40:37.713Z,8.40
2018-10-01T21:43:05.862Z,8.50
2018-10-01T21:45:33.817Z,8.50
2018-10-01T21:48:01.756Z,8.50
2018-10-01T21:50:29.794Z,8.50
2018-10-01T21:52:57.802Z,8.40
2018-10-01T21:55:25.799Z,8.30
2018-10-01T21:57:53.908Z,8.20
2018-10-01T22:00:21.915Z,8.10
2018-10-01T22:02:50.037Z,8.00
2018-10-01T22:05:18.028Z,8.00
2018-10-01T22:07:45.982Z,8.00
2018-10-01T22:10:13.920Z,8.00
2018-10-01T22:12:42.005Z,8.00
2018-10-01T22:15:10.016Z,8.00
2018-10-01T22:17:38.043Z,8.00
2018-10-01T22:20:06.215Z,8.10
2018-10-01T22:22:34.095Z,8.10
2018-10-01T22:25:02.418Z,8.20
2018-10-01T22:27:30.516Z,8.20
2018-10-01T22:29:58.508Z,8.20
2018-10-01T22:32:26.586Z,8.30
2018-10-01T22:34:54.570Z,8.20
2018-10-01T22:37:22.496Z,8.30
2018-10-01T22:39:50.587Z,8.30
2018-10-01T22:42:18.538Z,8.30
2018-10-01T22:44:46.474Z,8.40
2018-10-01T22:47:14.417Z,8.30
2018-10-01T22:49:42.457Z,8.30
2018-10-01T22:52:10.415Z,8.30
2018-10-01T22:54:38.543Z,8.40
2018-10-01T22:57:06.548Z,8.40
2018-10-01T22:59:34.490Z,8.40
2018-10-01T23:02:02.416Z,8.40
2018-10-01T23:04:30.326Z,8.40
2018-10-01T23:06:58.303Z,8.40
2018-10-01T23:09:26.158Z,8.40
2018-10-01T23:11:54.029Z,8.40
2018-10-01T23:14:21.999Z,8.40
2018-10-01T23:16:49.949Z,8.50
2018-10-01T23:19:17.879Z,8.50
2018-10-01T23:21:45.868Z,8.50
2018-10-01T23:24:13.840Z,8.40
2018-10-01T23:26:41.948Z,8.40
2018-10-01T23:29:09.969Z,8.40
2018-10-01T23:31:38.166Z,8.40
2018-10-01T23:34:06.238Z,8.50
2018-10-01T23:36:35.358Z,8.40
2018-10-01T23:39:04.461Z,8.40
2018-10-01T23:41:32.481Z,8.50
2018-10-01T23:44:00.502Z,8.40
2018-10-01T23:46:28.467Z,8.30
2018-10-01T23:48:56.433Z,8.30
2018-10-01T23:51:24.484Z,8.20
2018-10-01T23:53:52.488Z,8.10
2018-10-01T23:56:20.452Z,8.00
2018-10-01T23:58:48.518Z,7.90
